Time;durP1;ratioP1;P1;durP2;ratioP2;P2;SDS_P1;SDS_P2;PMS_P1;PMS_P2;Temp;Humidity;BMP_temperature;BMP_pressure;BME280_temperature;BME280_humidity;BME280_pressure;Samples;Min_cycle;Max_cycle;Signal;HPM_P1;HPM_P2
2022/06/06 00:01:18;;;;;;;0.00;0.00;;;15.90;99.90;;;;;;5073178;28;20123;-82
2022/06/06 00:03:45;;;;;;;0.90;0.38;;;15.90;99.90;;;;;;5055807;28;20090;-82
2022/06/06 00:06:15;;;;;;;0.05;0.05;;;15.90;99.90;;;;;;5073314;28;20067;-82
2022/06/06 00:08:41;;;;;;;0.00;0.00;;;15.90;99.90;;;;;;5073049;28;20048;-82
2022/06/06 00:11:09;;;;;;;0.00;0.00;;;15.80;99.90;;;;;;5056437;28;20044;-82
2022/06/06 00:13:36;;;;;;;1.02;0.17;;;15.80;99.90;;;;;;5073226;28;20049;-81
2022/06/06 00:16:03;;;;;;;0.00;0.00;;;15.80;99.90;;;;;;5072987;28;20447;-81
2022/06/06 00:18:29;;;;;;;0.80;0.47;;;15.80;99.90;;;;;;5072867;28;20489;-81
2022/06/06 00:20:57;;;;;;;0.00;0.00;;;15.80;99.90;;;;;;5072690;28;20396;-81
2022/06/06 00:23:23;;;;;;;0.00;0.00;;;15.80;99.90;;;;;;5073087;28;20117;-81
2022/06/06 00:25:49;;;;;;;0.00;0.00;;;15.70;99.90;;;;;;5072788;28;20391;-81
2022/06/06 00:28:14;;;;;;;0.00;0.00;;;15.70;99.90;;;;;;5072961;28;20048;-81
2022/06/06 00:30:40;;;;;;;0.00;0.00;;;15.70;99.90;;;;;;5072863;28;20495;-80
2022/06/06 00:35:50;;;;;;;8.93;0.63;;;15.70;99.90;;;;;;5072867;28;20105;-81
2022/06/06 00:38:16;;;;;;;0.00;0.00;;;15.70;99.90;;;;;;5072884;28;20048;-81
2022/06/06 00:40:47;;;;;;;0.30;0.00;;;15.70;99.90;;;;;;5072886;28;20041;-81
2022/06/06 00:43:12;;;;;;;0.00;0.00;;;15.70;99.90;;;;;;5072832;28;20048;-80
2022/06/06 00:45:38;;;;;;;0.32;0.30;;;15.70;99.90;;;;;;5056075;28;20048;-80
2022/06/06 00:48:31;;;;;;;0.52;0.08;;;15.60;99.90;;;;;;5072727;28;20476;-81
2022/06/06 00:51:08;;;;;;;0.45;0.20;;;15.60;99.90;;;;;;5058248;28;20507;-81
2022/06/06 00:53:50;;;;;;;0.20;0.00;;;15.60;99.90;;;;;;5060157;28;20400;-81
2022/06/06 00:56:24;;;;;;;0.13;0.00;;;15.60;99.90;;;;;;5060846;28;20106;-81
2022/06/06 00:58:54;;;;;;;0.00;0.00;;;15.60;99.90;;;;;;5077107;28;20509;-81
2022/06/06 01:01:21;;;;;;;0.00;0.00;;;15.50;99.90;;;;;;5060250;28;20048;-81
2022/06/06 01:03:47;;;;;;;0.00;0.00;;;15.50;99.90;;;;;;5059659;28;20060;-80
2022/06/06 01:06:17;;;;;;;0.00;0.00;;;15.60;99.90;;;;;;5075911;28;20090;-80
2022/06/06 01:08:46;;;;;;;0.00;0.00;;;15.60;99.90;;;;;;5076808;28;20136;-80
2022/06/06 01:11:12;;;;;;;0.22;0.22;;;15.60;99.90;;;;;;5076944;28;20052;-80
2022/06/06 01:13:41;;;;;;;0.00;0.00;;;15.50;99.90;;;;;;5060162;28;20070;-81
2022/06/06 01:16:40;;;;;;;0.05;0.00;;;15.60;99.90;;;;;;5059882;28;20127;-81
2022/06/06 01:19:31;;;;;;;0.38;0.10;;;15.60;99.90;;;;;;5076414;28;20048;-81
2022/06/06 01:22:24;;;;;;;0.00;0.00;;;15.60;99.90;;;;;;5076720;28;20378;-81
2022/06/06 01:25:27;;;;;;;0.55;0.25;;;15.60;99.90;;;;;;5076092;28;20441;-80
2022/06/06 01:28:05;;;;;;;0.20;0.10;;;15.60;99.90;;;;;;5076429;28;20044;-80
2022/06/06 01:30:42;;;;;;;3.80;0.70;;;15.60;99.90;;;;;;5059682;28;20055;-80
2022/06/06 01:33:14;;;;;;;0.10;0.10;;;15.60;99.90;;;;;;5059366;28;20102;-80
2022/06/06 01:35:43;;;;;;;0.88;0.32;;;15.60;99.90;;;;;;5059407;28;20051;-80
2022/06/06 01:38:11;;;;;;;0.20;0.20;;;15.50;99.90;;;;;;5059387;28;20045;-79
2022/06/06 01:41:01;;;;;;;0.10;0.10;;;15.50;99.90;;;;;;5075669;28;20048;-79
2022/06/06 01:43:32;;;;;;;0.28;0.13;;;15.50;99.90;;;;;;5059213;28;20178;-80
2022/06/06 01:46:12;;;;;;;0.65;0.65;;;15.50;99.90;;;;;;5075953;28;20036;-80
2022/06/06 01:48:41;;;;;;;0.60;0.60;;;15.50;99.90;;;;;;5059262;28;20052;-80
2022/06/06 01:51:12;;;;;;;0.10;0.10;;;15.40;99.90;;;;;;5076175;28;20055;-81
2022/06/06 01:53:39;;;;;;;0.00;0.00;;;15.40;99.90;;;;;;5059288;28;20055;-80
2022/06/06 01:56:07;;;;;;;1.73;0.50;;;15.30;99.90;;;;;;5058646;28;20404;-80
2022/06/06 01:58:33;;;;;;;0.40;0.40;;;15.30;99.90;;;;;;5075723;28;20052;-80
2022/06/06 02:01:01;;;;;;;1.73;0.32;;;15.20;99.90;;;;;;5075519;28;20488;-80
2022/06/06 02:03:27;;;;;;;0.52;0.38;;;15.20;99.90;;;;;;5074857;28;20056;-80
2022/06/06 02:05:53;;;;;;;3.67;0.95;;;15.20;99.90;;;;;;5074927;28;20044;-79
2022/06/06 02:08:19;;;;;;;0.32;0.32;;;15.10;99.90;;;;;;5075510;28;20067;-80
2022/06/06 02:10:45;;;;;;;0.50;0.50;;;15.10;99.90;;;;;;5058778;28;20094;-81
2022/06/06 02:13:11;;;;;;;0.90;0.65;;;15.10;99.90;;;;;;5076081;28;20431;-80
2022/06/06 02:15:37;;;;;;;0.50;0.50;;;15.10;99.90;;;;;;5075520;28;20048;-80
2022/06/06 02:18:04;;;;;;;0.70;0.70;;;15.10;99.90;;;;;;5075212;28;20040;-80
2022/06/06 02:20:32;;;;;;;1.48;0.63;;;15.10;99.90;;;;;;5058651;28;20041;-81
2022/06/06 02:22:58;;;;;;;0.45;0.35;;;15.00;99.90;;;;;;5075141;28;20135;-81
2022/06/06 02:25:24;;;;;;;1.42;0.55;;;15.00;99.90;;;;;;5058087;28;20067;-80
2022/06/06 02:27:50;;;;;;;1.00;0.80;;;14.90;99.90;;;;;;5074745;28;20036;-80
2022/06/06 02:30:19;;;;;;;0.10;0.10;;;14.90;99.90;;;;;;5058762;28;20056;-81
2022/06/06 02:32:45;;;;;;;0.93;0.63;;;14.90;99.90;;;;;;5058350;28;20104;-80
2022/06/06 02:35:14;;;;;;;0.08;0.05;;;14.90;99.90;;;;;;5075079;28;20044;-80
2022/06/06 02:37:41;;;;;;;0.82;0.82;;;14.90;99.90;;;;;;5058295;28;20045;-80
2022/06/06 02:40:09;;;;;;;2.78;1.08;;;14.90;99.90;;;;;;5075183;28;20387;-80
2022/06/06 02:42:36;;;;;;;2.55;0.98;;;14.80;99.90;;;;;;5074838;28;20499;-80
2022/06/06 02:45:04;;;;;;;0.20;0.20;;;14.80;99.90;;;;;;5058239;28;20052;-80
2022/06/06 02:47:30;;;;;;;0.73;0.73;;;14.80;99.90;;;;;;5074591;28;20044;-80
2022/06/06 02:49:56;;;;;;;2.95;1.00;;;14.80;99.90;;;;;;5058178;28;20132;-81
2022/06/06 02:52:21;;;;;;;1.65;1.58;;;14.70;99.90;;;;;;5057935;28;20131;-81
2022/06/06 02:54:47;;;;;;;1.13;1.05;;;14.70;99.90;;;;;;5074600;28;20036;-80
2022/06/06 02:57:13;;;;;;;1.33;1.27;;;14.70;99.90;;;;;;5074595;28;20051;-81
2022/06/06 02:59:41;;;;;;;3.60;1.45;;;14.60;99.90;;;;;;5074428;28;20037;-81
2022/06/06 03:02:08;;;;;;;1.52;0.95;;;14.60;99.90;;;;;;5057621;28;20071;-80
2022/06/06 03:04:34;;;;;;;0.45;0.28;;;14.60;99.90;;;;;;5073928;28;20099;-81
2022/06/06 03:07:13;;;;;;;5.82;1.25;;;14.50;99.90;;;;;;5073946;28;20088;-80
2022/06/06 03:09:51;;;;;;;0.80;0.80;;;14.50;99.90;;;;;;5057812;28;20130;-80
2022/06/06 03:12:56;;;;;;;0.08;0.08;;;14.50;99.90;;;;;;5074519;28;20404;-80
2022/06/06 03:15:39;;;;;;;0.67;0.60;;;14.50;99.90;;;;;;5019018;28;20517;-80
2022/06/06 03:21:45;;;;;;;1.58;0.52;;;14.50;99.90;;;;;;5036662;28;20060;-80
2022/06/06 03:24:38;;;;;;;0.22;0.22;;;14.50;99.90;;;;;;5036008;28;20185;-80
2022/06/06 03:27:13;;;;;;;0.65;0.30;;;14.40;99.90;;;;;;5019715;28;20048;-80
2022/06/06 03:29:58;;;;;;;0.45;0.43;;;14.40;99.90;;;;;;5036434;28;20531;-80
2022/06/06 03:32:33;;;;;;;1.65;0.57;;;14.30;99.90;;;;;;5036370;28;20516;-81
2022/06/06 03:35:16;;;;;;;0.10;0.05;;;14.30;99.90;;;;;;5036584;28;20102;-81
2022/06/06 03:37:57;;;;;;;1.50;0.30;;;14.20;99.90;;;;;;5019374;28;20136;-80
2022/06/06 03:40:32;;;;;;;0.15;0.15;;;14.30;99.90;;;;;;5036195;28;20465;-81
2022/06/06 03:43:12;;;;;;;;;;;14.20;99.90;;;;;;5036238;28;20063;-81
2022/06/06 03:46:04;;;;;;;0.20;0.20;;;14.20;99.90;;;;;;5035917;28;19928;-81
2022/06/06 03:48:47;;;;;;;1.08;0.28;;;14.20;99.90;;;;;;5036019;28;20086;-81
2022/06/06 03:51:28;;;;;;;0.45;0.45;;;14.20;99.90;;;;;;5030953;28;20143;-81
2022/06/06 03:54:13;;;;;;;0.20;0.20;;;14.20;99.90;;;;;;5073451;28;20509;-81
2022/06/06 03:57:11;;;;;;;1.60;0.77;;;14.20;99.90;;;;;;5073394;28;20044;-81
2022/06/06 03:59:39;;;;;;;0.43;0.43;;;14.20;99.90;;;;;;5073167;28;20102;-81
2022/06/06 04:02:06;;;;;;;0.45;0.45;;;14.10;99.90;;;;;;5056493;28;20048;-81
2022/06/06 04:04:33;;;;;;;0.73;0.40;;;14.20;99.90;;;;;;5056161;28;20144;-81
2022/06/06 04:07:00;;;;;;;0.35;0.28;;;14.20;99.90;;;;;;5056012;28;20056;-81
2022/06/06 04:09:31;;;;;;;0.20;0.20;;;14.20;99.90;;;;;;5056077;28;20131;-81
2022/06/06 04:12:01;;;;;;;0.30;0.30;;;14.20;99.90;;;;;;5073178;28;20496;-81
2022/06/06 04:14:53;;;;;;;0.10;0.10;;;14.20;99.90;;;;;;5073737;28;20415;-81
2022/06/06 04:17:36;;;;;;;0.20;0.10;;;14.20;99.90;;;;;;5054162;28;20053;-82
2022/06/06 04:20:40;;;;;;;0.88;0.60;;;14.20;99.90;;;;;;5056088;28;20519;-81
2022/06/06 04:23:40;;;;;;;0.35;0.35;;;14.20;99.90;;;;;;5018943;28;20061;-81
2022/06/06 04:26:14;;;;;;;4.05;0.82;;;14.10;99.90;;;;;;5034660;28;20055;-82
2022/06/06 04:28:44;;;;;;;0.15;0.15;;;14.20;99.90;;;;;;5035301;28;20057;-82
2022/06/06 04:31:39;;;;;;;0.00;0.00;;;14.20;99.90;;;;;;5035785;28;20075;-82
2022/06/06 04:34:20;;;;;;;0.00;0.00;;;14.10;99.90;;;;;;4976321;28;20050;-82
2022/06/06 04:37:15;;;;;;;0.93;0.63;;;14.20;99.90;;;;;;4976375;28;20497;-82
2022/06/06 04:40:02;;;;;;;0.20;0.17;;;14.20;99.90;;;;;;4918664;29;20539;-83
2022/06/06 04:42:42;;;;;;;1.42;0.77;;;14.20;99.90;;;;;;4918960;29;20075;-82
2022/06/06 04:45:43;;;;;;;2.83;0.75;;;14.20;99.90;;;;;;4919381;29;20146;-82
2022/06/06 04:48:10;;;;;;;0.10;0.10;;;14.20;99.90;;;;;;4934916;29;20142;-82
2022/06/06 04:50:39;;;;;;;1.35;0.20;;;14.20;99.90;;;;;;4918499;29;20419;-83
2022/06/06 04:53:11;;;;;;;1.75;0.85;;;14.20;99.90;;;;;;4918743;29;20067;-82
2022/06/06 04:55:40;;;;;;;1.90;0.88;;;14.30;99.90;;;;;;4902955;29;20087;-83
2022/06/06 04:58:08;;;;;;;0.00;0.00;;;14.30;99.90;;;;;;4934515;29;20539;-83
2022/06/06 05:00:35;;;;;;;0.00;0.00;;;14.30;99.90;;;;;;4922127;29;20121;-82
2022/06/06 05:03:02;;;;;;;0.32;0.20;;;14.30;99.90;;;;;;4937435;29;20497;-83
2022/06/06 05:05:41;;;;;;;1.75;0.30;;;14.30;99.90;;;;;;4953421;29;20530;-82
2022/06/06 05:08:45;;;;;;;0.10;0.10;;;14.30;99.90;;;;;;4953797;29;20098;-82
2022/06/06 05:11:34;;;;;;;0.88;0.80;;;14.30;99.90;;;;;;4969385;28;20189;-82
2022/06/06 05:14:12;;;;;;;0.10;0.10;;;14.30;99.90;;;;;;4976184;28;20054;-82
2022/06/06 05:17:13;;;;;;;0.13;0.13;;;14.20;99.90;;;;;;5045592;28;20147;-82
2022/06/06 05:19:54;;;;;;;1.38;0.35;;;14.30;99.90;;;;;;5018445;28;20147;-83
2022/06/06 05:22:40;;;;;;;0.30;0.30;;;14.30;99.90;;;;;;5034846;28;20051;-83
2022/06/06 05:25:30;;;;;;;1.27;0.45;;;14.30;99.90;;;;;;5034733;28;20057;-82
2022/06/06 05:28:14;;;;;;;0.00;0.00;;;14.30;99.90;;;;;;5034204;28;20528;-82
2022/06/06 05:30:57;;;;;;;0.65;0.10;;;14.40;99.90;;;;;;5018219;28;20053;-82
2022/06/06 05:33:35;;;;;;;0.57;0.30;;;14.40;99.90;;;;;;5035071;28;20052;-82
2022/06/06 05:36:23;;;;;;;26.80;1.30;;;14.40;99.90;;;;;;5034574;28;20086;-82
2022/06/06 05:38:54;;;;;;;2.35;0.45;;;14.40;99.90;;;;;;5038178;28;20545;-83
2022/06/06 05:41:55;;;;;;;0.73;0.38;;;14.40;99.90;;;;;;5022086;28;20485;-82
2022/06/06 05:44:49;;;;;;;0.00;0.00;;;14.50;99.90;;;;;;5021504;28;20056;-81
2022/06/06 05:47:58;;;;;;;1.10;0.68;;;14.40;99.90;;;;;;5037996;28;20432;-80
2022/06/06 05:50:36;;;;;;;2.63;0.40;;;14.50;99.90;;;;;;4978936;28;20561;-82
2022/06/06 05:53:20;;;;;;;0.05;0.00;;;14.50;99.90;;;;;;4979257;28;20081;-83
2022/06/06 05:56:02;;;;;;;0.45;0.30;;;14.50;99.90;;;;;;4986741;28;20111;-83
2022/06/06 05:58:59;;;;;;;0.38;0.28;;;14.50;99.90;;;;;;5018182;28;20053;-83
2022/06/06 06:01:58;;;;;;;0.28;0.28;;;14.50;99.90;;;;;;5018209;28;20061;-83
2022/06/06 06:04:42;;;;;;;0.55;0.55;;;14.50;99.90;;;;;;5001116;28;20664;-83
2022/06/06 06:07:33;;;;;;;0.20;0.20;;;14.60;99.90;;;;;;5033957;28;20060;-82
2022/06/06 06:10:36;;;;;;;2.75;0.50;;;14.70;99.90;;;;;;5017643;28;20053;-82
2022/06/06 06:13:38;;;;;;;0.13;0.13;;;14.70;99.90;;;;;;5017591;28;20180;-82
2022/06/06 06:16:06;;;;;;;0.10;0.10;;;14.80;99.90;;;;;;5001552;28;20373;-81
2022/06/06 06:18:35;;;;;;;1.83;1.23;;;14.90;99.90;;;;;;5017481;28;20061;-81
2022/06/06 06:21:24;;;;;;;3.22;0.68;;;15.00;99.90;;;;;;5041227;28;20057;-81
2022/06/06 06:23:56;;;;;;;3.20;0.60;;;15.00;99.90;;;;;;5058539;28;20139;-82
2022/06/06 06:26:23;;;;;;;0.28;0.20;;;15.10;99.90;;;;;;5075103;28;20091;-82
2022/06/06 06:28:50;;;;;;;0.47;0.47;;;15.20;99.90;;;;;;5058490;28;20416;-82
2022/06/06 06:31:40;;;;;;;1.38;0.47;;;15.30;99.90;;;;;;5058425;28;20080;-81
2022/06/06 06:34:15;;;;;;;0.28;0.28;;;15.40;99.90;;;;;;5058723;28;20040;-82
2022/06/06 06:36:58;;;;;;;0.15;0.15;;;15.50;99.90;;;;;;5075318;28;20430;-81
2022/06/06 06:39:41;;;;;;;0.85;0.15;;;15.70;99.90;;;;;;5057837;28;20567;-81
2022/06/06 06:42:21;;;;;;;0.20;0.20;;;15.80;99.90;;;;;;5075632;28;20048;-80
2022/06/06 06:45:08;;;;;;;0.30;0.30;;;15.80;99.90;;;;;;5058684;28;20131;-82
2022/06/06 06:47:37;;;;;;;1.65;0.60;;;15.70;99.90;;;;;;5058330;28;20400;-81
2022/06/06 06:50:11;;;;;;;0.73;0.65;;;15.60;99.90;;;;;;5057402;28;20056;-81
2022/06/06 06:52:56;;;;;;;;;;;15.50;99.90;;;;;;5058850;28;20416;-82
2022/06/06 06:55:37;;;;;;;1.00;0.57;;;15.40;99.90;;;;;;5074557;28;19927;-81
2022/06/06 06:58:15;;;;;;;0.75;0.75;;;15.30;99.90;;;;;;5057975;28;20048;-81
2022/06/06 07:00:52;;;;;;;0.30;0.30;;;15.30;99.90;;;;;;5075268;28;20546;-82
2022/06/06 07:09:50;;;;;;;2.20;0.47;;;15.10;99.90;;;;;;5074497;28;20095;-82
2022/06/06 07:12:18;;;;;;;0.40;0.40;;;15.20;99.90;;;;;;5057953;28;20135;-82
2022/06/06 07:15:16;;;;;;;0.75;0.75;;;15.10;99.90;;;;;;5074216;28;20037;-81
2022/06/06 07:17:53;;;;;;;0.55;0.55;;;15.20;99.90;;;;;;5057770;28;20048;-82
2022/06/06 07:20:20;;;;;;;0.17;0.13;;;15.30;99.90;;;;;;5057825;28;20060;-82
2022/06/06 07:23:04;;;;;;;0.15;0.13;;;15.30;99.90;;;;;;5057465;28;20037;-82
2022/06/06 07:25:38;;;;;;;0.07;0.07;;;15.30;99.90;;;;;;5057261;28;20056;-82
2022/06/06 07:28:10;;;;;;;1.20;0.43;;;15.60;99.90;;;;;;5057475;28;20317;-82
2022/06/06 07:30:55;;;;;;;0.60;0.60;;;15.70;99.90;;;;;;5073786;28;20057;-82
2022/06/06 07:33:50;;;;;;;0.55;0.43;;;15.70;99.90;;;;;;5057494;28;20045;-83
2022/06/06 07:36:47;;;;;;;0.10;0.10;;;15.70;99.90;;;;;;5074089;28;20044;-81
2022/06/06 07:39:41;;;;;;;0.65;0.57;;;15.60;99.90;;;;;;5074011;28;20463;-81
2022/06/06 07:42:10;;;;;;;0.47;0.47;;;15.50;99.90;;;;;;5073784;28;20052;-83
2022/06/06 07:44:41;;;;;;;3.25;1.85;;;15.70;99.90;;;;;;5056735;28;20047;-83
2022/06/06 07:47:39;;;;;;;0.55;0.30;;;15.90;99.90;;;;;;5073659;28;20037;-82
2022/06/06 07:50:25;;;;;;;0.40;0.30;;;16.30;99.90;;;;;;5073477;28;20053;-83
2022/06/06 07:53:03;;;;;;;1.42;0.65;;;16.60;99.90;;;;;;5073978;28;20055;-83
2022/06/06 07:55:31;;;;;;;0.00;0.00;;;16.70;99.90;;;;;;5056514;28;20046;-82
2022/06/06 07:58:08;;;;;;;0.40;0.28;;;16.80;99.90;;;;;;5072110;28;20087;-81
2022/06/06 08:00:34;;;;;;;0.52;0.52;;;17.00;99.90;;;;;;5072567;28;20049;-82
2022/06/06 08:03:14;;;;;;;1.55;0.57;;;17.20;99.90;;;;;;5073041;28;20060;-81
2022/06/06 08:06:18;;;;;;;0.10;0.10;;;17.30;99.90;;;;;;5073262;28;20467;-81
2022/06/06 08:08:44;;;;;;;0.60;0.60;;;17.40;99.90;;;;;;5073239;28;20044;-82
2022/06/06 08:11:34;;;;;;;0.20;0.10;;;17.50;99.90;;;;;;5056638;28;20098;-83
2022/06/06 08:14:10;;;;;;;0.55;0.55;;;17.70;99.90;;;;;;5073511;28;20052;-83
2022/06/06 08:16:40;;;;;;;1.75;0.52;;;17.60;99.90;;;;;;5056654;28;20045;-83
2022/06/06 08:19:29;;;;;;;0.73;0.10;;;17.70;99.90;;;;;;5073173;28;20131;-82
2022/06/06 08:21:57;;;;;;;0.00;0.00;;;17.80;99.90;;;;;;5073834;28;20082;-82
2022/06/06 08:24:26;;;;;;;0.10;0.10;;;17.60;99.90;;;;;;5055859;28;20056;-83
2022/06/06 08:26:54;;;;;;;0.13;0.08;;;17.50;99.90;;;;;;5056031;28;20044;-83
2022/06/06 08:29:20;;;;;;;0.38;0.13;;;17.60;99.90;;;;;;5056453;28;20384;-83
2022/06/06 08:31:46;;;;;;;0.00;0.00;;;17.70;99.90;;;;;;5072888;28;20037;-85
2022/06/06 08:34:12;;;;;;;0.10;0.10;;;17.80;99.90;;;;;;5073026;28;20044;-83
2022/06/06 08:36:57;;;;;;;0.00;0.00;;;17.90;99.90;;;;;;5072817;28;20111;-83
2022/06/06 08:39:44;;;;;;;0.00;0.00;;;17.90;99.90;;;;;;5072669;28;20044;-83
2022/06/06 08:42:30;;;;;;;0.00;0.00;;;18.00;99.90;;;;;;5072737;28;20056;-84
2022/06/06 08:45:09;;;;;;;0.00;0.00;;;18.10;99.90;;;;;;5055999;28;20135;-83
2022/06/06 08:47:58;;;;;;;0.77;0.40;;;18.30;99.90;;;;;;5073305;28;20059;-83
2022/06/06 08:50:51;;;;;;;0.00;0.00;;;18.40;99.90;;;;;;5056710;28;20052;-83
2022/06/06 08:53:35;;;;;;;0.00;0.00;;;18.40;99.90;;;;;;5055966;28;20074;-83
2022/06/06 08:56:20;;;;;;;0.10;0.10;;;18.60;99.90;;;;;;5072723;28;20048;-84
2022/06/06 08:59:04;;;;;;;0.43;0.43;;;18.70;99.90;;;;;;5072547;28;20071;-84
2022/06/06 09:01:58;;;;;;;0.00;0.00;;;18.80;99.90;;;;;;5072831;28;20049;-85
2022/06/06 09:04:53;;;;;;;0.03;0.00;;;18.80;99.90;;;;;;5072180;28;20508;-86
2022/06/06 09:07:38;;;;;;;0.10;0.00;;;18.80;99.90;;;;;;5071532;28;20044;-85
2022/06/06 09:10:16;;;;;;;0.00;0.00;;;18.70;99.90;;;;;;5055749;28;20070;-85
2022/06/06 09:13:04;;;;;;;0.00;0.00;;;18.70;99.90;;;;;;5057184;28;20049;-84
2022/06/06 09:15:30;;;;;;;11.95;1.13;;;18.60;99.90;;;;;;5058777;28;20061;-84
2022/06/06 09:18:31;;;;;;;0.43;0.20;;;18.60;99.90;;;;;;5059289;28;20489;-84
2022/06/06 09:21:35;;;;;;;0.00;0.00;;;18.50;99.90;;;;;;5076461;28;20084;-84
2022/06/06 09:24:23;;;;;;;0.00;0.00;;;18.40;99.90;;;;;;5055591;28;20052;-84
2022/06/06 09:27:15;;;;;;;0.43;0.00;;;18.30;99.90;;;;;;5055953;28;20443;-84
2022/06/06 09:29:52;;;;;;;0.00;0.00;;;18.30;99.90;;;;;;5056338;28;20052;-84
2022/06/06 09:32:39;;;;;;;0.00;0.00;;;18.50;99.90;;;;;;5056210;28;20056;-86
2022/06/06 09:35:30;;;;;;;0.00;0.00;;;18.80;99.90;;;;;;5056097;28;20048;-84
2022/06/06 09:38:04;;;;;;;0.00;0.00;;;19.10;99.90;;;;;;5040399;28;20485;-85
2022/06/06 09:40:49;;;;;;;;;;;19.10;99.90;;;;;;5039526;28;20135;-85
2022/06/06 09:43:27;;;;;;;0.00;0.00;;;19.00;99.90;;;;;;5055953;28;19928;-85
2022/06/06 09:46:05;;;;;;;0.00;0.00;;;18.70;99.90;;;;;;5039011;28;20045;-85
2022/06/06 09:48:56;;;;;;;0.00;0.00;;;18.40;99.90;;;;;;5069704;28;20056;-84
2022/06/06 09:51:58;;;;;;;0.00;0.00;;;18.40;99.90;;;;;;5057802;28;20059;-85
2022/06/06 10:01:26;;;;;;;0.00;0.00;;;19.40;99.90;;;;;;5036588;28;20060;-86
2022/06/06 10:03:57;;;;;;;0.10;0.00;;;19.40;99.90;;;;;;5018318;28;20111;-85
2022/06/06 10:06:59;;;;;;;0.00;0.00;;;19.40;99.90;;;;;;5034014;28;20148;-86
2022/06/06 10:09:51;;;;;;;0.00;0.00;;;19.50;99.90;;;;;;5034341;28;20485;-85
2022/06/06 10:12:44;;;;;;;0.00;0.00;;;19.70;99.90;;;;;;5054113;28;20550;-86
2022/06/06 10:15:29;;;;;;;0.00;0.00;;;19.80;99.90;;;;;;5037870;28;20045;-86
2022/06/06 10:18:13;;;;;;;;;;;20.00;99.90;;;;;;5038328;28;20592;-87
2022/06/06 10:20:57;;;;;;;0.20;0.10;;;20.00;99.90;;;;;;5032072;28;19921;-85
2022/06/06 10:23:59;;;;;;;0.00;0.00;;;20.30;99.90;;;;;;5018090;28;20092;-86
2022/06/06 10:27:01;;;;;;;0.00;0.00;;;20.50;99.90;;;;;;5034109;28;20045;-86
2022/06/06 10:30:12;;;;;;;0.00;0.00;;;20.60;98.60;;;;;;5034527;28;20057;-85
2022/06/06 10:32:37;;;;;;;0.00;0.00;;;20.70;98.20;;;;;;5033193;28;20054;-87
2022/06/06 10:35:45;;;;;;;0.00;0.00;;;20.80;98.00;;;;;;5053833;28;20518;-87
2022/06/06 10:38:16;;;;;;;7.18;0.30;;;20.80;96.50;;;;;;5001139;28;20083;-86
2022/06/06 10:41:02;;;;;;;0.30;0.30;;;20.70;97.50;;;;;;5017136;28;20061;-87
2022/06/06 10:44:02;;;;;;;0.20;0.20;;;20.70;97.20;;;;;;5001860;28;20152;-87
2022/06/06 10:46:40;;;;;;;0.00;0.00;;;20.80;95.20;;;;;;5000596;28;20058;-85
2022/06/06 10:49:20;;;;;;;0.00;0.00;;;20.70;94.80;;;;;;5022011;28;20496;-86
2022/06/06 10:52:36;;;;;;;0.00;0.00;;;20.70;95.50;;;;;;5037657;28;20071;-87
2022/06/06 10:55:39;;;;;;;0.00;0.00;;;20.90;94.00;;;;;;5023076;28;20499;-86
2022/06/06 10:58:29;;;;;;;0.00;0.00;;;21.10;92.90;;;;;;5000919;28;20238;-86
2022/06/06 11:01:29;;;;;;;1.65;0.43;;;21.20;92.70;;;;;;5018066;28;20136;-87
2022/06/06 11:04:18;;;;;;;0.00;0.00;;;21.00;93.00;;;;;;5035857;28;20548;-86
2022/06/06 11:07:04;;;;;;;0.00;0.00;;;20.90;93.40;;;;;;5025390;28;20063;-86
2022/06/06 11:09:42;;;;;;;0.00;0.00;;;20.80;93.30;;;;;;5006815;28;20526;-88
2022/06/06 11:12:54;;;;;;;0.00;0.00;;;20.90;97.30;;;;;;5036776;28;20084;-85
2022/06/06 11:15:19;;;;;;;0.00;0.00;;;20.90;95.10;;;;;;5045194;28;20057;-85
2022/06/06 11:18:27;;;;;;;0.20;0.00;;;20.60;92.70;;;;;;5053775;28;20408;-86
2022/06/06 11:21:11;;;;;;;0.00;0.00;;;20.40;94.40;;;;;;5053774;28;20110;-86
2022/06/06 11:23:37;;;;;;;0.40;0.28;;;20.10;97.50;;;;;;5037852;28;20053;-86
2022/06/06 11:26:24;;;;;;;0.00;0.00;;;20.00;97.20;;;;;;5054783;28;20504;-85
2022/06/06 11:29:10;;;;;;;0.00;0.00;;;20.10;99.90;;;;;;5037708;28;20060;-87
2022/06/06 11:31:51;;;;;;;0.00;0.00;;;20.20;95.90;;;;;;5037580;28;20409;-86
2022/06/06 11:34:37;;;;;;;0.00;0.00;;;20.40;95.30;;;;;;5037042;28;20048;-87
2022/06/06 11:37:28;;;;;;;0.00;0.00;;;20.40;96.90;;;;;;5037035;28;20045;-87
2022/06/06 11:40:27;;;;;;;0.00;0.00;;;20.30;98.60;;;;;;5037070;28;20092;-86
2022/06/06 11:43:18;;;;;;;0.00;0.00;;;20.30;99.90;;;;;;5037107;28;20048;-86
2022/06/06 11:45:43;;;;;;;0.00;0.00;;;20.20;99.90;;;;;;5036740;28;20041;-86
2022/06/06 11:48:30;;;;;;;0.00;0.00;;;19.90;99.90;;;;;;5037688;28;20102;-86
2022/06/06 11:51:30;;;;;;;0.00;0.00;;;19.90;99.90;;;;;;5053751;28;20041;-87
2022/06/06 11:54:23;;;;;;;0.00;0.00;;;19.80;99.90;;;;;;5036964;28;20114;-86
2022/06/06 11:57:12;;;;;;;0.00;0.00;;;19.40;99.90;;;;;;5036871;28;20055;-87
2022/06/06 12:00:13;;;;;;;0.00;0.00;;;19.00;99.90;;;;;;5036918;28;20449;-86
2022/06/06 12:02:45;;;;;;;0.00;0.00;;;18.60;99.90;;;;;;5036264;28;20044;-86
2022/06/06 12:05:27;;;;;;;0.00;0.00;;;18.40;99.90;;;;;;5053487;28;20049;-86
2022/06/06 12:07:59;;;;;;;0.00;0.00;;;18.40;99.90;;;;;;5053526;28;20048;-86
2022/06/06 12:10:34;;;;;;;0.00;0.00;;;18.50;99.90;;;;;;5036783;28;20077;-87
2022/06/06 12:13:20;;;;;;;0.52;0.20;;;18.90;99.90;;;;;;5053331;28;20049;-85
2022/06/06 12:15:46;;;;;;;0.00;0.00;;;19.30;99.90;;;;;;5053187;28;20048;-85
2022/06/06 12:18:27;;;;;;;0.03;0.03;;;19.60;99.90;;;;;;5036915;28;20056;-86
2022/06/06 12:21:11;;;;;;;0.00;0.00;;;19.70;99.90;;;;;;5053250;28;20127;-86
2022/06/06 12:23:55;;;;;;;0.00;0.00;;;19.40;99.90;;;;;;5037221;28;20131;-86
2022/06/06 12:26:51;;;;;;;0.05;0.05;;;19.00;99.90;;;;;;5036287;28;20382;-87
2022/06/06 12:29:52;;;;;;;0.00;0.00;;;18.50;99.90;;;;;;5036712;28;20059;-87
2022/06/06 12:32:47;;;;;;;0.20;0.20;;;18.30;99.90;;;;;;5036156;28;20118;-88
2022/06/06 12:35:22;;;;;;;0.00;0.00;;;18.20;99.90;;;;;;5036651;28;20048;-88
2022/06/06 12:38:19;;;;;;;0.00;0.00;;;18.20;99.90;;;;;;5036508;28;20143;-88
2022/06/06 12:41:11;;;;;;;0.00;0.00;;;18.30;99.90;;;;;;5053223;28;20057;-86
2022/06/06 12:43:59;;;;;;;0.00;0.00;;;18.20;99.90;;;;;;5036493;28;20048;-86
2022/06/06 12:46:55;;;;;;;0.00;0.00;;;18.20;99.90;;;;;;5053267;28;20049;-87
2022/06/06 12:49:33;;;;;;;0.00;0.00;;;18.30;99.90;;;;;;5036362;28;20500;-87
2022/06/06 12:52:01;;;;;;;0.00;0.00;;;18.30;99.90;;;;;;5036366;28;20059;-86
2022/06/06 12:57:33;;;;;;;0.00;0.00;;;18.20;99.90;;;;;;5057974;28;20059;-84
2022/06/06 13:00:07;;;;;;;0.00;0.00;;;18.40;99.90;;;;;;5064869;28;20048;-83
2022/06/06 13:03:01;;;;;;;0.00;0.00;;;18.30;99.90;;;;;;5068419;28;20041;-85
2022/06/06 13:06:05;;;;;;;0.00;0.00;;;18.30;99.90;;;;;;5070421;28;20052;-84
2022/06/06 13:08:55;;;;;;;0.00;0.00;;;18.10;99.90;;;;;;5015353;28;20049;-84
2022/06/06 13:11:48;;;;;;;0.00;0.00;;;18.10;99.90;;;;;;5015557;28;20067;-84
2022/06/06 13:14:40;;;;;;;0.20;0.20;;;18.10;99.90;;;;;;5032740;28;20110;-84
2022/06/06 13:17:40;;;;;;;0.70;0.70;;;18.20;99.90;;;;;;5032244;28;20159;-83
2022/06/06 13:20:34;;;;;;;0.20;0.10;;;18.20;99.90;;;;;;4957735;28;20065;-83
2022/06/06 13:23:05;;;;;;;0.03;0.00;;;18.30;99.90;;;;;;4973740;28;20073;-83
2022/06/06 13:25:48;;;;;;;0.00;0.00;;;18.40;99.90;;;;;;4974505;28;20093;-84
2022/06/06 13:28:26;;;;;;;0.00;0.00;;;18.50;99.90;;;;;;4973193;28;20058;-83
2022/06/06 13:31:12;;;;;;;0.00;0.00;;;18.40;99.90;;;;;;4974331;28;20058;-84
2022/06/06 13:34:15;;;;;;;0.00;0.00;;;18.50;99.90;;;;;;4956861;28;20506;-84
2022/06/06 13:36:58;;;;;;;0.00;0.00;;;18.50;99.90;;;;;;4957370;28;20051;-84
2022/06/06 13:39:52;;;;;;;0.00;0.00;;;18.50;99.90;;;;;;4973435;28;20070;-83
2022/06/06 13:42:26;;;;;;;0.00;0.00;;;18.50;99.90;;;;;;4957258;28;20112;-82
2022/06/06 13:45:28;;;;;;;0.00;0.00;;;18.50;99.90;;;;;;4985819;28;20061;-83
2022/06/06 13:48:13;;;;;;;0.05;0.00;;;18.50;99.90;;;;;;4996180;28;20053;-82
2022/06/06 13:50:56;;;;;;;0.00;0.00;;;18.40;99.90;;;;;;5012541;28;20046;-83
2022/06/06 13:53:23;;;;;;;0.00;0.00;;;18.30;99.90;;;;;;4996321;28;20144;-83
2022/06/06 13:56:21;;;;;;;0.00;0.00;;;18.20;99.90;;;;;;5042674;28;20550;-83
2022/06/06 13:58:50;;;;;;;4.00;0.57;;;17.80;99.90;;;;;;5070984;28;20053;-83
2022/06/06 14:01:25;;;;;;;0.00;0.00;;;17.60;99.90;;;;;;5073760;28;20127;-84
2022/06/06 14:04:47;;;;;;;0.00;0.00;;;17.40;99.90;;;;;;5056047;28;20134;-83
2022/06/06 14:07:31;;;;;;;0.00;0.00;;;17.30;99.90;;;;;;5034998;28;20464;-82
2022/06/06 14:10:05;;;;;;;0.20;0.20;;;17.20;99.90;;;;;;5035107;28;20057;-83
2022/06/06 14:12:42;;;;;;;0.00;0.00;;;17.20;99.90;;;;;;5035428;28;20056;-82
2022/06/06 14:15:11;;;;;;;0.00;0.00;;;17.10;99.90;;;;;;5035580;28;20111;-83
2022/06/06 14:17:41;;;;;;;0.00;0.00;;;17.10;99.90;;;;;;5034927;28;20044;-83
2022/06/06 14:20:12;;;;;;;0.00;0.00;;;17.10;99.90;;;;;;5019174;28;20504;-82